Time;durP1;ratioP1;P1;durP2;ratioP2;P2;SDS_P1;SDS_P2;PMS_P1;PMS_P2;Temp;Humidity;BMP_temperature;BMP_pressure;BME280_temperature;BME280_humidity;BME280_pressure;Samples;Min_cycle;Max_cycle;Signal;HPM_P1;HPM_P2
2023/10/12 00:00:24;;;;;;;21.10;9.70;;;18.00;99.90;;;;;;5066032;28;20086;-38
2023/10/12 00:02:48;;;;;;;25.48;9.23;;;17.90;99.90;;;;;;5070616;28;20040;-47
2023/10/12 00:05:17;;;;;;;23.10;9.35;;;17.90;99.90;;;;;;5072457;28;20025;-39
2023/10/12 00:07:45;;;;;;;23.00;9.05;;;17.90;99.90;;;;;;5072131;28;20021;-37
2023/10/12 00:12:50;;;;;;;20.65;9.98;;;17.90;99.90;;;;;;5071900;28;20055;-37
2023/10/12 00:17:58;;;;;;;29.48;10.98;;;17.80;99.90;;;;;;5072937;28;20036;-37
2023/10/12 00:23:09;;;;;;;24.77;10.43;;;17.70;99.90;;;;;;5072794;28;19920;-37
2023/10/12 00:25:46;;;;;;;22.20;10.63;;;17.60;99.90;;;;;;5072194;28;20111;-37
2023/10/12 00:28:17;;;;;;;22.52;9.00;;;17.60;99.90;;;;;;5072401;28;20035;-37
2023/10/12 00:30:43;;;;;;;27.35;10.45;;;17.60;99.90;;;;;;5071068;28;20366;-37
2023/10/12 00:33:09;;;;;;;22.70;10.15;;;17.60;99.90;;;;;;5052364;28;20036;-38
2023/10/12 00:35:39;;;;;;;19.70;9.07;;;17.50;99.90;;;;;;5052053;28;20053;-37
2023/10/12 00:38:18;;;;;;;21.42;10.30;;;17.50;99.90;;;;;;5058506;28;20063;-36
2023/10/12 00:40:57;;;;;;;27.60;10.13;;;17.50;99.90;;;;;;5052304;28;20082;-37
2023/10/12 00:43:36;;;;;;;25.63;9.48;;;17.40;99.90;;;;;;5056253;28;20562;-37
2023/10/12 00:46:16;;;;;;;17.23;8.63;;;17.40;99.90;;;;;;5072463;28;20017;-36
2023/10/12 00:48:47;;;;;;;30.85;9.38;;;17.40;99.90;;;;;;5071560;28;20027;-36
2023/10/12 00:51:16;;;;;;;19.75;9.13;;;17.40;99.90;;;;;;5055393;28;20075;-38
2023/10/12 00:53:57;;;;;;;23.23;9.30;;;17.40;99.90;;;;;;5072106;28;20381;-36
2023/10/12 00:56:25;;;;;;;20.27;8.65;;;17.40;99.90;;;;;;5071426;28;20016;-37
2023/10/12 00:58:51;;;;;;;25.25;9.07;;;17.30;99.90;;;;;;5053461;28;20496;-36
2023/10/12 01:01:18;;;;;;;35.53;8.18;;;17.30;99.90;;;;;;5071274;28;20025;-36
2023/10/12 01:03:45;;;;;;;14.25;8.40;;;17.30;99.90;;;;;;5053378;28;20037;-36
2023/10/12 01:08:46;;;;;;;23.30;7.75;;;17.10;99.90;;;;;;5071739;28;20032;-36
2023/10/12 01:11:20;;;;;;;13.80;5.88;;;17.10;99.90;;;;;;5057991;28;20469;-36
2023/10/12 01:13:48;;;;;;;21.35;6.90;;;17.00;99.90;;;;;;5075626;28;20363;-37
2023/10/12 01:16:22;;;;;;;27.48;7.47;;;16.90;99.90;;;;;;5057863;28;20017;-36
2023/10/12 01:18:53;;;;;;;22.83;7.70;;;16.90;99.90;;;;;;5075650;28;20473;-36
2023/10/12 01:21:20;;;;;;;17.40;5.90;;;16.90;99.90;;;;;;5071289;28;20017;-36
2023/10/12 01:23:50;;;;;;;18.15;5.55;;;16.90;99.90;;;;;;5072300;28;20385;-37
2023/10/12 01:26:17;;;;;;;19.20;5.25;;;16.80;99.90;;;;;;5070596;28;20508;-36
2023/10/12 01:28:48;;;;;;;25.23;5.22;;;16.80;99.90;;;;;;5075442;28;20024;-37
2023/10/12 01:31:15;;;;;;;20.25;6.03;;;16.80;99.90;;;;;;5068510;28;20035;-36
2023/10/12 01:33:41;;;;;;;11.18;3.95;;;16.80;99.90;;;;;;5065403;28;20415;-36
2023/10/12 01:36:07;;;;;;;15.48;4.53;;;16.70;99.90;;;;;;5074488;28;20044;-36
2023/10/12 01:38:37;;;;;;;17.63;4.47;;;16.70;99.90;;;;;;5075064;28;20025;-37
2023/10/12 01:41:09;;;;;;;11.82;3.63;;;16.60;99.90;;;;;;5074730;28;20029;-36
2023/10/12 01:43:36;;;;;;;10.27;3.63;;;16.60;99.90;;;;;;5074651;28;20496;-39
2023/10/12 01:46:08;;;;;;;10.00;3.58;;;16.60;99.90;;;;;;5074389;28;20103;-36
2023/10/12 01:48:34;;;;;;;8.07;3.05;;;16.60;99.90;;;;;;5056601;28;20174;-36
2023/10/12 01:51:09;;;;;;;11.50;3.05;;;16.60;99.90;;;;;;5054164;28;20388;-36
2023/10/12 01:53:37;;;;;;;10.00;3.97;;;16.60;99.90;;;;;;5072846;28;20037;-36
2023/10/12 01:56:09;;;;;;;6.25;2.95;;;16.60;99.90;;;;;;5071747;28;20021;-36
2023/10/12 01:58:35;;;;;;;13.95;3.55;;;16.60;99.90;;;;;;5073811;28;20020;-36
2023/10/12 02:01:08;;;;;;;8.95;3.65;;;16.70;99.90;;;;;;5060361;28;20108;-36
2023/10/12 02:03:42;;;;;;;4.72;2.78;;;16.60;99.90;;;;;;5073183;28;20388;-35
2023/10/12 02:06:16;;;;;;;9.98;3.33;;;16.70;99.90;;;;;;5074122;28;20109;-36
2023/10/12 02:08:46;;;;;;;12.88;3.53;;;16.70;99.90;;;;;;5052778;28;20032;-36
2023/10/12 02:13:47;;;;;;;13.75;3.03;;;16.70;99.90;;;;;;5066076;28;20029;-36
2023/10/12 02:16:37;;;;;;;8.55;3.17;;;16.70;99.90;;;;;;5063554;28;20020;-36
2023/10/12 02:19:04;;;;;;;5.85;3.00;;;16.60;99.90;;;;;;5063657;28;20021;-36
2023/10/12 02:21:33;;;;;;;8.98;3.50;;;16.60;99.90;;;;;;5056330;28;20033;-36
2023/10/12 02:26:38;;;;;;;5.95;3.03;;;16.40;99.90;;;;;;5071019;28;20396;-36
2023/10/12 02:34:18;;;;;;;17.45;3.53;;;16.40;99.90;;;;;;5071739;28;20117;-36
2023/10/12 02:39:43;;;;;;;6.78;1.60;;;16.40;99.90;;;;;;5020181;28;20029;-37
2023/10/12 02:44:56;;;;;;;3.25;0.80;;;16.30;99.90;;;;;;5073665;28;20043;-37
2023/10/12 02:47:30;;;;;;;3.72;1.00;;;16.20;99.90;;;;;;5071872;28;20139;-37
2023/10/12 02:50:06;;;;;;;2.03;1.10;;;16.30;99.90;;;;;;5073710;28;20032;-36
2023/10/12 02:52:32;;;;;;;3.70;1.00;;;16.30;99.90;;;;;;5055477;28;20024;-36
2023/10/12 02:55:06;;;;;;;4.03;1.00;;;16.20;99.90;;;;;;5073158;28;20397;-37
2023/10/12 02:57:32;;;;;;;3.08;1.00;;;16.20;99.90;;;;;;5059410;28;20028;-36
2023/10/12 03:00:14;;;;;;;1.33;1.00;;;16.00;99.90;;;;;;5073522;28;20016;-36
2023/10/12 03:02:41;;;;;;;10.10;1.30;;;16.00;99.90;;;;;;5073464;28;20024;-36
2023/10/12 03:05:08;;;;;;;2.03;0.93;;;15.80;99.90;;;;;;5072509;28;20027;-36
2023/10/12 03:07:39;;;;;;;4.13;1.50;;;15.80;99.90;;;;;;5073109;28;20032;-36
2023/10/12 03:10:24;;;;;;;3.22;1.33;;;15.80;99.90;;;;;;5073090;28;20393;-36
2023/10/12 03:12:54;;;;;;;4.30;0.77;;;15.70;99.90;;;;;;5058060;28;20020;-35
2023/10/12 03:15:30;;;;;;;4.35;1.20;;;15.70;99.90;;;;;;5072429;28;20044;-34
2023/10/12 03:17:58;;;;;;;0.73;0.50;;;15.60;99.90;;;;;;5072782;28;20517;-35
2023/10/12 03:20:28;;;;;;;1.23;0.68;;;15.60;99.90;;;;;;5072594;28;20481;-35
2023/10/12 03:23:00;;;;;;;1.02;0.30;;;15.60;99.90;;;;;;5054762;28;20465;-35
2023/10/12 03:25:42;;;;;;;0.65;0.30;;;15.50;99.90;;;;;;5056018;28;20028;-35
2023/10/12 03:28:50;;;;;;;0.68;0.30;;;15.50;99.90;;;;;;5073249;28;20111;-34
2023/10/12 03:31:20;;;;;;;2.25;0.52;;;15.40;99.90;;;;;;5059319;28;20036;-34
2023/10/12 03:33:53;;;;;;;0.22;0.22;;;15.40;99.90;;;;;;5071775;28;20428;-33
2023/10/12 03:36:36;;;;;;;0.50;0.40;;;15.30;99.90;;;;;;5067829;28;20515;-34
2023/10/12 03:41:54;;;;;;;0.75;0.47;;;15.30;99.90;;;;;;5072677;28;20503;-33
2023/10/12 03:47:05;;;;;;;0.40;0.40;;;15.40;99.90;;;;;;5072590;28;20036;-33
2023/10/12 03:49:32;;;;;;;0.43;0.43;;;15.40;99.90;;;;;;5072966;28;20116;-33
2023/10/12 03:52:12;;;;;;;1.50;0.27;;;15.40;99.90;;;;;;5072502;28;20025;-34
2023/10/12 03:54:39;;;;;;;0.30;0.30;;;15.40;99.90;;;;;;5072226;28;20286;-33
2023/10/12 03:57:19;;;;;;;0.60;0.47;;;15.40;99.90;;;;;;5072078;28;20032;-33
2023/10/12 04:02:30;;;;;;;1.13;0.22;;;15.40;99.90;;;;;;5071947;28;20500;-33
2023/10/12 04:05:16;;;;;;;0.70;0.38;;;15.50;99.90;;;;;;5072557;28;20522;-33
2023/10/12 04:19:03;;;;;;;3.38;0.60;;;15.50;99.90;;;;;;5057032;28;20500;-34
2023/10/12 04:21:40;;;;;;;0.85;0.40;;;15.50;99.90;;;;;;5071841;28;20036;-34
2023/10/12 04:27:00;;;;;;;0.38;0.35;;;15.30;99.90;;;;;;5072220;28;20107;-34
2023/10/12 04:29:30;;;;;;;2.05;0.30;;;15.30;99.90;;;;;;5072416;28;20533;-36
2023/10/12 04:32:04;;;;;;;0.57;0.40;;;15.30;99.90;;;;;;5071994;28;20032;-38
2023/10/12 04:34:46;;;;;;;1.30;0.43;;;15.30;99.90;;;;;;5060918;28;20119;-37
2023/10/12 04:37:17;;;;;;;0.38;0.38;;;15.30;99.90;;;;;;5066783;28;20032;-34
2023/10/12 04:39:49;;;;;;;0.57;0.57;;;15.20;99.90;;;;;;5039966;28;20016;-34
2023/10/12 04:42:20;;;;;;;1.08;0.63;;;15.30;99.90;;;;;;5071706;28;20060;-34
2023/10/12 04:47:45;;;;;;;1.55;0.80;;;15.10;99.90;;;;;;5038257;28;20397;-34
2023/10/12 04:50:26;;;;;;;0.40;0.30;;;15.00;99.90;;;;;;5075335;28;20052;-34
2023/10/12 04:53:06;;;;;;;0.55;0.43;;;14.90;99.90;;;;;;5074572;28;20032;-33
2023/10/12 04:55:34;;;;;;;1.27;0.60;;;14.80;99.90;;;;;;5075513;28;20425;-34
2023/10/12 04:58:09;;;;;;;1.10;0.40;;;14.80;99.90;;;;;;5075416;28;20025;-34
2023/10/12 05:00:48;;;;;;;2.90;0.40;;;14.70;99.90;;;;;;5072609;28;20036;-34
2023/10/12 05:03:25;;;;;;;1.38;0.47;;;14.60;99.90;;;;;;5075957;28;20016;-36
2023/10/12 05:05:57;;;;;;;1.98;1.00;;;14.60;99.90;;;;;;5074073;28;20032;-34
2023/10/12 05:08:23;;;;;;;1.02;0.65;;;14.50;99.90;;;;;;5046398;28;20020;-33
2023/10/12 05:10:48;;;;;;;1.55;0.77;;;14.40;99.90;;;;;;5071510;28;20099;-36
2023/10/12 05:13:21;;;;;;;1.20;1.02;;;14.30;99.90;;;;;;5057492;28;20024;-36
2023/10/12 05:16:02;;;;;;;1.70;0.57;;;14.20;99.90;;;;;;5071564;28;20130;-36
2023/10/12 05:18:28;;;;;;;0.68;0.68;;;14.20;99.90;;;;;;5057464;28;20040;-56
2023/10/12 05:20:54;;;;;;;1.35;1.23;;;14.10;99.90;;;;;;5075162;28;20055;-36
2023/10/12 05:23:19;;;;;;;1.73;0.85;;;14.00;99.90;;;;;;5074891;28;20537;-35
2023/10/12 05:26:07;;;;;;;2.70;0.68;;;14.00;99.90;;;;;;5074727;28;20500;-36
2023/10/12 05:28:38;;;;;;;1.83;0.85;;;14.00;99.90;;;;;;5074380;28;20032;-36
2023/10/12 05:35:59;;;;;;;2.88;1.13;;;14.00;99.90;;;;;;5073224;28;20041;-36
2023/10/12 05:38:37;;;;;;;2.65;1.10;;;13.90;99.90;;;;;;5074306;28;20390;-36
2023/10/12 05:41:04;;;;;;;1.60;0.70;;;13.90;99.90;;;;;;5074820;28;20021;-35
2023/10/12 05:43:33;;;;;;;4.47;0.90;;;13.90;99.90;;;;;;5074416;28;20032;-37
2023/10/12 05:46:05;;;;;;;2.20;0.85;;;13.90;99.90;;;;;;5073302;28;20055;-35
2023/10/12 05:48:34;;;;;;;3.55;0.90;;;13.90;99.90;;;;;;5060051;28;20443;-35
2023/10/12 05:51:00;;;;;;;10.52;1.02;;;13.90;99.90;;;;;;5070842;28;20030;-36
2023/10/12 05:53:26;;;;;;;2.95;0.70;;;13.80;99.90;;;;;;5074385;28;20119;-35
2023/10/12 05:55:52;;;;;;;4.22;1.10;;;13.70;99.90;;;;;;5065066;28;20020;-38
2023/10/12 05:58:18;;;;;;;5.63;1.23;;;13.70;99.90;;;;;;5055550;28;20021;-36
2023/10/12 06:00:52;;;;;;;5.45;1.63;;;13.70;99.90;;;;;;5069814;28;20013;-36
2023/10/12 06:03:20;;;;;;;7.03;1.02;;;13.80;99.90;;;;;;5073416;28;20028;-36
2023/10/12 06:05:48;;;;;;;6.43;0.93;;;13.70;99.90;;;;;;5074810;28;20449;-36
2023/10/12 06:08:17;;;;;;;3.10;1.02;;;13.80;99.90;;;;;;5074043;28;20048;-36
2023/10/12 06:10:42;;;;;;;7.10;1.20;;;13.80;99.90;;;;;;5074045;28;20016;-38
2023/10/12 06:13:13;;;;;;;8.23;1.42;;;13.90;99.90;;;;;;5073913;28;20033;-36
2023/10/12 06:15:49;;;;;;;6.97;1.33;;;13.90;99.90;;;;;;5073873;28;20074;-36
2023/10/12 06:18:21;;;;;;;3.22;1.63;;;13.80;99.90;;;;;;5073746;28;20032;-36
2023/10/12 06:20:58;;;;;;;9.02;1.38;;;13.80;99.90;;;;;;5055645;28;20016;-38
2023/10/12 06:23:24;;;;;;;3.67;1.58;;;13.80;99.90;;;;;;5074483;28;20477;-37
2023/10/12 06:25:50;;;;;;;2.20;1.38;;;13.80;99.90;;;;;;5073631;28;20029;-49
2023/10/12 06:28:18;;;;;;;4.72;1.30;;;13.80;99.90;;;;;;5055843;28;20362;-37
2023/10/12 06:30:47;;;;;;;6.00;1.45;;;13.90;99.90;;;;;;5073776;28;20028;-47
2023/10/12 06:33:17;;;;;;;1.48;0.93;;;13.90;99.90;;;;;;5073728;28;20074;-37
2023/10/12 06:35:59;;;;;;;1.65;0.60;;;13.90;99.90;;;;;;5073180;28;20097;-36
2023/10/12 06:38:38;;;;;;;6.70;1.25;;;13.80;99.90;;;;;;5073252;28;20096;-38
2023/10/12 06:46:20;;;;;;;5.80;1.10;;;13.80;99.90;;;;;;5066303;28;20114;-36
2023/10/12 06:48:47;;;;;;;5.40;0.95;;;13.80;99.90;;;;;;5067194;28;20043;-40
2023/10/12 06:51:19;;;;;;;3.33;1.03;;;13.80;99.90;;;;;;5054158;28;20056;-41
2023/10/12 06:54:06;;;;;;;3.10;1.05;;;13.80;99.90;;;;;;5072756;28;20028;-37
2023/10/12 06:56:38;;;;;;;4.95;1.58;;;13.90;99.90;;;;;;5070071;28;20027;-35
2023/10/12 07:01:51;;;;;;;3.00;0.95;;;13.90;99.90;;;;;;5072903;28;20040;-34
2023/10/12 07:04:38;;;;;;;1.60;1.00;;;13.90;99.90;;;;;;5072309;28;20056;-34
2023/10/12 07:07:07;;;;;;;3.08;1.20;;;13.90;99.90;;;;;;5057524;28;20035;-34
2023/10/12 07:09:52;;;;;;;4.20;0.98;;;13.80;99.90;;;;;;5069968;28;20024;-34
2023/10/12 07:12:19;;;;;;;0.73;0.73;;;13.80;99.90;;;;;;5066215;28;20473;-49
2023/10/12 07:14:47;;;;;;;8.75;1.10;;;13.80;99.90;;;;;;5072911;28;20487;-33
2023/10/12 07:17:14;;;;;;;4.78;1.65;;;13.90;99.90;;;;;;5070875;28;20044;-32
2023/10/12 07:19:55;;;;;;;4.38;1.77;;;13.90;99.90;;;;;;5055037;28;20488;-32
2023/10/12 07:22:21;;;;;;;3.58;0.88;;;14.00;99.90;;;;;;5053236;28;20083;-32
2023/10/12 07:24:53;;;;;;;2.50;1.05;;;14.10;99.90;;;;;;5061317;28;20020;-33
2023/10/12 07:27:23;;;;;;;2.95;1.35;;;14.10;99.90;;;;;;5062483;28;20112;-35
2023/10/12 07:30:10;;;;;;;7.07;1.10;;;14.10;99.90;;;;;;5072510;28;20036;-32
2023/10/12 07:32:40;;;;;;;4.27;1.10;;;14.10;99.90;;;;;;5049070;28;20035;-33
2023/10/12 07:35:53;;;;;;;3.78;1.17;;;14.10;99.90;;;;;;5072028;28;20409;-33
2023/10/12 07:37:53;;;;;;;5.97;0.95;;;14.10;99.90;;;;;;5061355;28;20102;-33
2023/10/12 07:40:19;;;;;;;1.48;0.85;;;14.20;99.90;;;;;;5072876;28;20021;-32
2023/10/12 07:42:48;;;;;;;2.13;1.02;;;14.20;99.90;;;;;;5071885;28;20037;-32
2023/10/12 07:45:18;;;;;;;3.45;0.98;;;14.10;99.90;;;;;;5071977;28;20024;-35
2023/10/12 07:47:46;;;;;;;3.25;1.30;;;14.00;99.90;;;;;;5071209;28;20047;-34
2023/10/12 07:50:25;;;;;;;3.58;0.98;;;14.00;99.90;;;;;;5054472;28;20033;-34
2023/10/12 07:53:06;;;;;;;1.92;0.70;;;14.00;99.90;;;;;;5072383;28;20108;-34
2023/10/12 07:55:41;;;;;;;0.95;0.80;;;14.00;99.90;;;;;;5057320;28;20032;-34
2023/10/12 07:58:12;;;;;;;4.47;1.17;;;13.90;99.90;;;;;;5053988;28;20012;-34
2023/10/12 08:00:41;;;;;;;3.10;1.17;;;14.00;99.90;;;;;;5062670;28;20390;-34
2023/10/12 08:03:18;;;;;;;2.70;0.98;;;14.00;99.90;;;;;;5070063;28;20092;-35
2023/10/12 08:05:56;;;;;;;1.10;1.00;;;14.10;99.90;;;;;;5072131;28;20492;-35
2023/10/12 08:08:34;;;;;;;;;;;14.10;99.90;;;;;;5072342;28;20033;-35
2023/10/12 08:11:09;;;;;;;3.13;1.27;;;14.20;99.90;;;;;;5054046;28;19936;-34
2023/10/12 08:13:39;;;;;;;3.00;1.40;;;14.30;99.90;;;;;;5072287;28;20423;-34
2023/10/12 08:16:12;;;;;;;2.47;1.45;;;14.30;99.90;;;;;;5053994;28;20026;-34
2023/10/12 08:19:09;;;;;;;1.98;1.25;;;14.30;99.90;;;;;;5073813;28;20096;-34
2023/10/12 08:21:38;;;;;;;2.58;1.13;;;14.30;99.90;;;;;;5076763;28;20070;-34
2023/10/12 08:44:55;;;;;;;1.60;1.23;;;14.50;99.90;;;;;;5074652;28;20024;-34
2023/10/12 08:49:53;;;;;;;2.67;1.20;;;14.60;99.90;;;;;;5074878;28;20447;-33
2023/10/12 08:52:29;;;;;;;1.85;1.45;;;14.60;99.90;;;;;;5074893;28;20500;-33
2023/10/12 08:55:03;;;;;;;5.30;1.83;;;14.60;99.90;;;;;;5075790;28;20029;-33
2023/10/12 08:57:55;;;;;;;1.90;1.42;;;14.60;99.90;;;;;;5057471;28;20085;-34
2023/10/12 09:03:24;;;;;;;2.40;1.20;;;14.60;99.90;;;;;;5075647;28;20036;-33
2023/10/12 09:05:54;;;;;;;4.10;0.95;;;14.60;99.90;;;;;;5069232;28;20044;-53
2023/10/12 09:11:13;;;;;;;3.03;1.00;;;14.70;99.90;;;;;;5075062;28;20032;-35
2023/10/12 09:13:47;;;;;;;2.20;1.15;;;14.70;99.90;;;;;;5058300;28;20033;-36
2023/10/12 09:16:15;;;;;;;1.27;0.77;;;14.70;99.90;;;;;;5072569;28;20058;-35
2023/10/12 09:18:56;;;;;;;1.02;0.93;;;14.70;99.90;;;;;;5075494;28;20031;-32
2023/10/12 09:23:58;;;;;;;2.00;0.80;;;14.70;99.90;;;;;;5072634;28;20128;-32
2023/10/12 09:26:32;;;;;;;1.58;1.10;;;14.70;99.90;;;;;;5074675;28;20433;-33
2023/10/12 09:32:14;;;;;;;3.17;1.10;;;14.80;99.90;;;;;;5040419;28;20056;-47
2023/10/12 09:34:42;;;;;;;2.33;1.45;;;14.80;99.90;;;;;;5073840;28;20048;-46
2023/10/12 09:37:16;;;;;;;1.55;1.20;;;14.70;99.90;;;;;;5057137;28;20107;-46
2023/10/12 09:39:42;;;;;;;7.47;1.25;;;14.80;99.90;;;;;;5075081;28;20029;-50
2023/10/12 09:42:13;;;;;;;3.85;2.17;;;14.80;99.90;;;;;;5074966;28;20025;-66
2023/10/12 09:44:40;;;;;;;4.25;1.98;;;14.80;99.90;;;;;;5074760;28;20082;-46
2023/10/12 09:47:15;;;;;;;1.92;1.50;;;14.80;99.90;;;;;;5073359;28;20017;-44
2023/10/12 09:49:49;;;;;;;1.90;1.67;;;14.90;99.90;;;;;;5050164;28;20028;-45
2023/10/12 09:52:18;;;;;;;1.90;1.70;;;14.90;99.90;;;;;;5071462;28;20020;-46
2023/10/12 09:55:06;;;;;;;5.50;1.95;;;14.90;99.90;;;;;;5073633;28;20027;-51
2023/10/12 09:57:36;;;;;;;5.38;1.55;;;14.90;99.90;;;;;;5055141;28;20035;-46
2023/10/12 10:02:49;;;;;;;2.50;2.20;;;15.00;99.90;;;;;;5063484;28;20082;-49
2023/10/12 10:07:53;;;;;;;2.72;1.38;;;14.90;99.90;;;;;;5072721;28;20041;-46
2023/10/12 10:10:57;;;;;;;1.63;1.50;;;14.90;99.90;;;;;;5074330;28;20035;-47
2023/10/12 10:13:39;;;;;;;1.77;1.67;;;14.90;99.90;;;;;;5069328;28;20070;-47
2023/10/12 10:16:08;;;;;;;2.38;1.73;;;14.90;99.90;;;;;;5065767;28;20020;-49
2023/10/12 10:18:49;;;;;;;2.28;1.42;;;15.00;99.90;;;;;;5073872;28;20017;-44
2023/10/12 10:21:19;;;;;;;2.97;1.98;;;14.90;99.90;;;;;;5070922;28;20052;-44
2023/10/12 10:23:48;;;;;;;2.22;1.95;;;15.00;99.90;;;;;;5073491;28;20048;-50
2023/10/12 10:26:23;;;;;;;2.70;1.92;;;15.00;99.90;;;;;;5073524;28;20013;-55
2023/10/12 10:29:04;;;;;;;1.75;1.60;;;15.00;99.90;;;;;;5066186;28;20031;-45
2023/10/12 10:31:41;;;;;;;2.80;1.67;;;15.10;99.90;;;;;;5072913;28;20484;-50
2023/10/12 10:34:10;;;;;;;3.53;1.95;;;15.00;99.90;;;;;;5066911;28;20466;-46
2023/10/12 10:36:36;;;;;;;2.17;1.98;;;15.10;99.90;;;;;;5073425;28;20094;-45
2023/10/12 10:39:28;;;;;;;2.13;1.92;;;15.10;99.90;;;;;;5054844;28;20032;-43
2023/10/12 10:42:03;;;;;;;2.63;2.03;;;15.10;99.90;;;;;;5072356;28;20019;-45
2023/10/12 10:44:36;;;;;;;1.80;1.67;;;15.10;99.90;;;;;;5073230;28;20032;-46
2023/10/12 10:47:06;;;;;;;1.60;1.50;;;15.10;99.90;;;;;;5072084;28;20032;-46
2023/10/12 10:49:32;;;;;;;2.42;2.15;;;15.10;99.90;;;;;;5073550;28;20024;-46
2023/10/12 10:52:13;;;;;;;2.80;1.88;;;15.10;99.90;;;;;;5072713;28;20095;-44
2023/10/12 10:54:41;;;;;;;2.17;1.98;;;15.10;99.90;;;;;;5072665;28;20069;-43
2023/10/12 10:57:24;;;;;;;2.70;1.88;;;15.10;99.90;;;;;;5073173;28;20028;-45
2023/10/12 10:59:56;;;;;;;2.20;1.98;;;15.20;99.90;;;;;;5072712;28;20472;-47
2023/10/12 11:02:22;;;;;;;3.53;2.15;;;15.20;99.90;;;;;;5072359;28;20021;-45
2023/10/12 11:04:55;;;;;;;2.28;2.08;;;15.10;99.90;;;;;;5073263;28;20016;-44
2023/10/12 11:07:20;;;;;;;3.65;1.83;;;15.20;99.90;;;;;;5073388;28;20020;-46
2023/10/12 11:10:06;;;;;;;1.90;1.55;;;15.20;99.90;;;;;;5073492;28;20028;-51
2023/10/12 11:12:32;;;;;;;11.30;1.95;;;15.20;99.90;;;;;;5072887;28;20079;-46
2023/10/12 11:15:05;;;;;;;2.42;2.22;;;15.20;99.90;;;;;;5071389;28;20020;-46
2023/10/12 11:17:40;;;;;;;3.22;2.10;;;15.20;99.90;;;;;;5069875;28;20095;-45
2023/10/12 11:20:27;;;;;;;5.10;2.05;;;15.30;99.90;;;;;;5072198;28;20017;-44
2023/10/12 11:22:57;;;;;;;6.23;1.93;;;15.30;99.90;;;;;;5057920;28;20083;-44
2023/10/12 11:25:26;;;;;;;2.67;2.25;;;15.20;99.90;;;;;;5069100;28;20511;-43
2023/10/12 11:30:42;;;;;;;3.38;2.28;;;15.30;99.90;;;;;;5072120;28;20047;-48
2023/10/12 11:33:09;;;;;;;2.67;2.10;;;15.30;99.90;;;;;;5072753;28;20028;-48
2023/10/12 11:35:45;;;;;;;5.03;2.50;;;15.30;99.90;;;;;;5071992;28;20036;-49
2023/10/12 11:38:17;;;;;;;3.53;2.53;;;15.30;99.90;;;;;;5072637;28;20278;-45
2023/10/12 11:40:43;;;;;;;7.55;3.05;;;15.30;99.90;;;;;;5072454;28;20047;-47
2023/10/12 11:43:09;;;;;;;3.03;2.40;;;15.30;99.90;;;;;;5054672;28;20063;-45
2023/10/12 11:45:35;;;;;;;3.17;2.63;;;15.30;99.90;;;;;;5072223;28;20037;-43
2023/10/12 11:48:28;;;;;;;2.72;2.33;;;15.30;99.90;;;;;;5072218;28;20432;-41
2023/10/12 11:50:55;;;;;;;6.15;2.90;;;15.30;99.90;;;;;;5056089;28;20102;-46
2023/10/12 11:53:21;;;;;;;7.63;3.83;;;15.30;99.90;;;;;;5072385;28;20017;-44
2023/10/12 11:55:49;;;;;;;8.57;2.97;;;15.30;99.90;;;;;;5071853;28;20029;-42
2023/10/12 11:58:19;;;;;;;5.47;2.65;;;15.40;99.90;;;;;;5071985;28;20025;-52
2023/10/12 12:00:48;;;;;;;5.32;2.78;;;15.30;99.90;;;;;;5069646;28;20021;-45
2023/10/12 12:03:15;;;;;;;4.45;2.92;;;15.30;99.90;;;;;;5072712;28;20019;-47
2023/10/12 12:05:50;;;;;;;8.88;3.75;;;15.30;99.90;;;;;;5072428;28;20033;-48
2023/10/12 12:08:18;;;;;;;10.55;3.30;;;15.30;99.90;;;;;;5072269;28;20033;-45
2023/10/12 12:13:16;;;;;;;4.63;3.10;;;15.40;99.90;;;;;;5052439;28;19912;-45
2023/10/12 12:15:46;;;;;;;5.97;3.25;;;15.40;99.90;;;;;;5069476;28;20028;-47
2023/10/12 12:18:21;;;;;;;5.22;3.85;;;15.40;99.90;;;;;;5072468;28;20027;-47
2023/10/12 12:20:48;;;;;;;7.57;4.20;;;15.40;99.90;;;;;;5071316;28;20024;-44
2023/10/12 12:23:17;;;;;;;6.60;4.20;;;15.50;99.90;;;;;;5072066;28;20024;-46
2023/10/12 12:25:44;;;;;;;6.93;4.30;;;15.50;99.90;;;;;;5053785;28;20029;-44
2023/10/12 12:28:21;;;;;;;8.57;4.78;;;15.50;99.90;;;;;;5071940;28;20036;-47
2023/10/12 12:30:51;;;;;;;9.93;4.82;;;15.50;99.90;;;;;;5071650;28;20436;-49
2023/10/12 12:33:17;;;;;;;7.85;4.57;;;15.50;99.90;;;;;;5072202;28;20029;-50
2023/10/12 12:35:47;;;;;;;13.25;5.95;;;15.50;99.90;;;;;;5068547;28;20124;-48
2023/10/12 12:40:59;;;;;;;12.70;5.63;;;15.50;99.90;;;;;;5071030;28;20472;-44
2023/10/12 12:43:25;;;;;;;13.02;6.28;;;15.50;99.90;;;;;;5070876;28;20009;-46
2023/10/12 12:45:52;;;;;;;9.18;5.32;;;15.60;99.90;;;;;;5046396;28;20439;-47
2023/10/12 12:48:19;;;;;;;12.27;6.07;;;15.60;99.90;;;;;;5071896;28;20036;-47
2023/10/12 12:50:47;;;;;;;12.00;6.70;;;15.60;99.90;;;;;;5053936;28;20107;-54
2023/10/12 12:53:18;;;;;;;12.02;6.75;;;15.60;99.90;;;;;;5071697;28;20039;-48
2023/10/12 12:55:44;;;;;;;16.05;6.75;;;15.50;99.90;;;;;;5072074;28;20477;-51
2023/10/12 12:58:14;;;;;;;20.15;6.72;;;15.50;99.90;;;;;;5071558;28;20123;-50
2023/10/12 13:00:40;;;;;;;10.07;6.45;;;15.30;99.90;;;;;;5054419;28;20116;-54
2023/10/12 13:03:09;;;;;;;11.10;5.38;;;15.30;99.90;;;;;;5071771;28;20619;-53
2023/10/12 13:05:35;;;;;;;17.30;7.03;;;15.20;99.90;;;;;;5074506;28;20493;-48
2023/10/12 13:08:00;;;;;;;28.67;7.50;;;15.10;99.90;;;;;;5075278;28;20032;-42
2023/10/12 13:10:26;;;;;;;22.60;8.55;;;15.10;99.90;;;;;;5074413;28;20029;-52
2023/10/12 13:12:53;;;;;;;21.88;8.30;;;15.20;99.90;;;;;;5073445;28;20424;-44
2023/10/12 13:15:18;;;;;;;17.15;8.07;;;15.40;99.90;;;;;;5075142;28;20056;-32
2023/10/12 13:17:44;;;;;;;21.00;8.48;;;15.50;99.90;;;;;;5074845;28;20090;-32
2023/10/12 13:20:21;;;;;;;12.73;7.22;;;15.60;99.90;;;;;;5057163;28;20102;-32
2023/10/12 13:22:47;;;;;;;10.82;6.40;;;15.80;99.90;;;;;;5074608;28;20630;-32
2023/10/12 13:25:18;;;;;;;11.90;6.90;;;15.80;99.90;;;;;;5056925;28;20091;-33
2023/10/12 13:27:49;;;;;;;11.60;6.32;;;15.90;99.90;;;;;;5075301;28;20029;-32
2023/10/12 13:30:15;;;;;;;7.43;4.47;;;16.00;99.90;;;;;;5075376;28;20034;-33
2023/10/12 13:32:50;;;;;;;4.65;3.17;;;16.00;99.90;;;;;;5074360;28;20019;-33
2023/10/12 13:35:28;;;;;;;7.05;3.50;;;16.10;99.90;;;;;;5056866;28;20040;-33
2023/10/12 13:38:03;;;;;;;4.68;3.20;;;16.10;99.90;;;;;;5075485;28;20025;-33
2023/10/12 13:40:30;;;;;;;7.32;3.25;;;16.00;99.90;;;;;;5058566;28;20075;-32
2023/10/12 13:43:07;;;;;;;5.32;3.40;;;16.10;99.90;;;;;;5074732;28;20047;-32
2023/10/12 13:45:33;;;;;;;5.60;3.10;;;16.10;99.90;;;;;;5074817;28;20496;-33
2023/10/12 13:47:59;;;;;;;5.68;3.17;;;16.10;99.90;;;;;;5040038;28;20103;-34
2023/10/12 13:50:24;;;;;;;5.50;3.47;;;16.10;99.90;;;;;;5073247;28;20532;-32
2023/10/12 13:52:50;;;;;;;6.40;4.38;;;16.10;99.90;;;;;;5074629;28;20036;-32
2023/10/12 13:55:16;;;;;;;7.18;4.15;;;16.20;99.90;;;;;;5055692;28;20062;-33
2023/10/12 13:58:06;;;;;;;8.63;4.75;;;16.20;99.90;;;;;;5072985;28;20390;-33
2023/10/12 14:00:34;;;;;;;7.82;4.97;;;16.20;99.90;;;;;;5067770;28;20505;-32
2023/10/12 14:03:10;;;;;;;9.77;6.10;;;16.30;99.90;;;;;;5074363;28;20020;-33
2023/10/12 14:05:42;;;;;;;10.40;6.25;;;16.30;99.90;;;;;;5072655;28;20032;-32
2023/10/12 14:08:09;;;;;;;7.85;5.95;;;16.40;99.90;;;;;;5052640;28;20599;-32
2023/10/12 14:10:42;;;;;;;9.95;6.45;;;16.40;99.90;;;;;;5053926;28;20537;-32
2023/10/12 14:13:08;;;;;;;9.38;6.95;;;16.40;99.90;;;;;;5072279;28;20486;-32
2023/10/12 14:15:35;;;;;;;12.93;7.45;;;16.50;99.90;;;;;;5073123;28;20035;-32
2023/10/12 14:18:02;;;;;;;11.90;7.15;;;16.50;99.90;;;;;;5073026;28;20028;-32
2023/10/12 14:20:28;;;;;;;12.63;6.57;;;16.50;99.90;;;;;;5054117;28;20121;-32
2023/10/12 14:22:58;;;;;;;8.57;6.07;;;16.50;99.90;;;;;;5073394;28;20075;-32
2023/10/12 14:25:28;;;;;;;9.02;5.07;;;16.50;99.90;;;;;;5072238;28;20078;-32
2023/10/12 14:28:00;;;;;;;7.90;4.90;;;16.60;99.90;;;;;;5072500;28;20024;-32
2023/10/12 14:30:29;;;;;;;8.40;4.63;;;16.60;99.90;;;;;;5054682;28;20025;-32
2023/10/12 14:33:03;;;;;;;5.03;3.72;;;16.60;99.90;;;;;;5071460;28;20024;-33
2023/10/12 14:35:35;;;;;;;5.97;4.47;;;16.60;99.90;;;;;;5071143;28;20034;-33
2023/10/12 14:38:07;;;;;;;8.82;4.90;;;16.60;99.90;;;;;;5072136;28;20025;-32
2023/10/12 14:40:35;;;;;;;8.02;6.07;;;16.60;99.90;;;;;;5064044;28;20091;-35
2023/10/12 14:43:07;;;;;;;9.05;5.97;;;16.70;99.90;;;;;;5072289;28;20016;-39
2023/10/12 14:45:48;;;;;;;9.07;5.90;;;16.70;99.90;;;;;;5071908;28;20078;-36
2023/10/12 14:48:16;;;;;;;9.80;5.78;;;16.60;99.90;;;;;;5069868;28;20124;-32
2023/10/12 14:50:47;;;;;;;8.13;6.22;;;16.60;99.90;;;;;;5055685;28;20485;-32
2023/10/12 14:53:15;;;;;;;10.90;6.95;;;16.60;99.90;;;;;;5072696;28;20089;-34
2023/10/12 14:55:51;;;;;;;16.20;8.48;;;16.60;99.90;;;;;;5071349;28;20047;-39
2023/10/12 14:58:21;;;;;;;19.42;8.40;;;16.60;99.90;;;;;;5070811;28;20032;-39
2023/10/12 15:00:47;;;;;;;19.85;8.70;;;16.60;99.90;;;;;;5072027;28;20540;-33